sensor_id;sensor_type;location;lat;lon;timestamp;temperature;humidity
11591;DHT22;5851;54.050;9.974;2023-07-20T00:01:26;15.30;87.10
11591;DHT22;5851;54.050;9.974;2023-07-20T00:03:54;15.40;86.20
11591;DHT22;5851;54.050;9.974;2023-07-20T00:06:21;15.40;86.20
11591;DHT22;5851;54.050;9.974;2023-07-20T00:08:49;15.40;86.30
11591;DHT22;5851;54.050;9.974;2023-07-20T00:11:16;15.40;86.20
11591;DHT22;5851;54.050;9.974;2023-07-20T00:13:43;15.30;86.60
11591;DHT22;5851;54.050;9.974;2023-07-20T00:16:10;15.20;86.70
11591;DHT22;5851;54.050;9.974;2023-07-20T00:18:37;15.20;86.90
11591;DHT22;5851;54.050;9.974;2023-07-20T00:21:05;15.20;87.10
11591;DHT22;5851;54.050;9.974;2023-07-20T00:23:32;15.20;87.10
11591;DHT22;5851;54.050;9.974;2023-07-20T00:25:59;15.30;87.30
11591;DHT22;5851;54.050;9.974;2023-07-20T00:28:26;15.30;88.00
11591;DHT22;5851;54.050;9.974;2023-07-20T00:30:53;15.20;87.30
11591;DHT22;5851;54.050;9.974;2023-07-20T00:33:20;15.30;86.70
11591;DHT22;5851;54.050;9.974;2023-07-20T00:35:47;15.30;86.60
11591;DHT22;5851;54.050;9.974;2023-07-20T00:38:15;15.40;86.50
11591;DHT22;5851;54.050;9.974;2023-07-20T00:40:42;15.40;87.60
11591;DHT22;5851;54.050;9.974;2023-07-20T00:43:09;15.30;87.20
11591;DHT22;5851;54.050;9.974;2023-07-20T00:45:36;15.30;87.80
11591;DHT22;5851;54.050;9.974;2023-07-20T00:48:04;15.20;87.90
11591;DHT22;5851;54.050;9.974;2023-07-20T00:50:32;15.20;87.40
11591;DHT22;5851;54.050;9.974;2023-07-20T00:53:00;15.30;87.50
11591;DHT22;5851;54.050;9.974;2023-07-20T00:55:30;15.20;87.30
11591;DHT22;5851;54.050;9.974;2023-07-20T00:57:58;15.10;88.40
11591;DHT22;5851;54.050;9.974;2023-07-20T01:00:25;15.10;87.50
11591;DHT22;5851;54.050;9.974;2023-07-20T01:02:53;15.10;88.20
11591;DHT22;5851;54.050;9.974;2023-07-20T01:05:20;14.90;89.70
11591;DHT22;5851;54.050;9.974;2023-07-20T01:07:55;14.90;88.50
11591;DHT22;5851;54.050;9.974;2023-07-20T01:10:31;15.00;88.80
11591;DHT22;5851;54.050;9.974;2023-07-20T01:13:00;15.00;88.30
11591;DHT22;5851;54.050;9.974;2023-07-20T01:15:28;15.10;88.70
11591;DHT22;5851;54.050;9.974;2023-07-20T01:17:55;15.10;88.20
11591;DHT22;5851;54.050;9.974;2023-07-20T01:20:23;15.00;88.20
11591;DHT22;5851;54.050;9.974;2023-07-20T01:23:17;14.90;88.70
11591;DHT22;5851;54.050;9.974;2023-07-20T01:26:02;14.90;88.80
11591;DHT22;5851;54.050;9.974;2023-07-20T01:29:05;15.00;88.10
11591;DHT22;5851;54.050;9.974;2023-07-20T01:31:38;15.10;87.60
11591;DHT22;5851;54.050;9.974;2023-07-20T01:34:08;15.10;87.10
11591;DHT22;5851;54.050;9.974;2023-07-20T01:36:36;15.10;87.10
11591;DHT22;5851;54.050;9.974;2023-07-20T01:39:04;15.00;87.40
11591;DHT22;5851;54.050;9.974;2023-07-20T01:41:33;15.00;87.60
11591;DHT22;5851;54.050;9.974;2023-07-20T01:44:00;14.90;89.20
11591;DHT22;5851;54.050;9.974;2023-07-20T01:46:27;14.90;88.00
11591;DHT22;5851;54.050;9.974;2023-07-20T01:48:56;14.90;88.20
11591;DHT22;5851;54.050;9.974;2023-07-20T01:51:23;14.80;88.50
11591;DHT22;5851;54.050;9.974;2023-07-20T01:53:49;14.90;88.40
11591;DHT22;5851;54.050;9.974;2023-07-20T01:56:16;14.80;88.60
11591;DHT22;5851;54.050;9.974;2023-07-20T01:58:43;14.80;88.40
11591;DHT22;5851;54.050;9.974;2023-07-20T02:01:10;14.70;88.90
11591;DHT22;5851;54.050;9.974;2023-07-20T02:03:37;14.80;89.10
11591;DHT22;5851;54.050;9.974;2023-07-20T02:06:05;14.90;88.90
11591;DHT22;5851;54.050;9.974;2023-07-20T02:08:32;14.90;88.10
11591;DHT22;5851;54.050;9.974;2023-07-20T02:10:59;14.80;89.50
11591;DHT22;5851;54.050;9.974;2023-07-20T02:13:26;14.80;88.90
11591;DHT22;5851;54.050;9.974;2023-07-20T02:15:53;14.90;89.20
11591;DHT22;5851;54.050;9.974;2023-07-20T02:18:20;14.90;88.10
11591;DHT22;5851;54.050;9.974;2023-07-20T02:20:47;14.90;88.00
11591;DHT22;5851;54.050;9.974;2023-07-20T02:23:15;14.90;88.20
11591;DHT22;5851;54.050;9.974;2023-07-20T02:25:42;14.90;87.80
11591;DHT22;5851;54.050;9.974;2023-07-20T02:28:12;15.00;87.90
11591;DHT22;5851;54.050;9.974;2023-07-20T02:30:39;14.90;88.70
11591;DHT22;5851;54.050;9.974;2023-07-20T02:33:07;14.90;88.50
11591;DHT22;5851;54.050;9.974;2023-07-20T02:35:34;15.00;87.30
11591;DHT22;5851;54.050;9.974;2023-07-20T02:38:01;15.00;87.50
11591;DHT22;5851;54.050;9.974;2023-07-20T02:40:30;14.90;88.00
11591;DHT22;5851;54.050;9.974;2023-07-20T02:42:57;14.90;88.00
11591;DHT22;5851;54.050;9.974;2023-07-20T02:45:24;14.90;87.60
11591;DHT22;5851;54.050;9.974;2023-07-20T02:47:51;14.90;88.50
11591;DHT22;5851;54.050;9.974;2023-07-20T02:50:17;14.90;89.40
11591;DHT22;5851;54.050;9.974;2023-07-20T02:52:44;14.90;89.70
11591;DHT22;5851;54.050;9.974;2023-07-20T02:55:11;14.80;89.70
11591;DHT22;5851;54.050;9.974;2023-07-20T02:57:40;14.90;88.80
11591;DHT22;5851;54.050;9.974;2023-07-20T03:00:07;14.90;87.90
11591;DHT22;5851;54.050;9.974;2023-07-20T03:02:34;14.90;87.50
11591;DHT22;5851;54.050;9.974;2023-07-20T03:05:01;14.90;87.50
11591;DHT22;5851;54.050;9.974;2023-07-20T03:07:31;14.90;88.60
11591;DHT22;5851;54.050;9.974;2023-07-20T03:09:58;14.90;88.50
11591;DHT22;5851;54.050;9.974;2023-07-20T03:12:25;14.90;89.30
11591;DHT22;5851;54.050;9.974;2023-07-20T03:14:54;14.90;87.60
11591;DHT22;5851;54.050;9.974;2023-07-20T03:17:22;14.90;88.90
11591;DHT22;5851;54.050;9.974;2023-07-20T03:19:49;15.00;87.90
11591;DHT22;5851;54.050;9.974;2023-07-20T03:22:16;15.00;86.70
11591;DHT22;5851;54.050;9.974;2023-07-20T03:24:43;14.90;87.80
11591;DHT22;5851;54.050;9.974;2023-07-20T03:27:10;14.90;88.50
11591;DHT22;5851;54.050;9.974;2023-07-20T03:29:37;14.90;87.20
11591;DHT22;5851;54.050;9.974;2023-07-20T03:32:08;14.90;89.40
11591;DHT22;5851;54.050;9.974;2023-07-20T03:34:36;14.80;87.90
11591;DHT22;5851;54.050;9.974;2023-07-20T03:37:03;14.90;86.60
11591;DHT22;5851;54.050;9.974;2023-07-20T03:39:31;14.90;86.80
11591;DHT22;5851;54.050;9.974;2023-07-20T03:41:58;14.90;88.10
11591;DHT22;5851;54.050;9.974;2023-07-20T03:44:25;14.90;87.20
11591;DHT22;5851;54.050;9.974;2023-07-20T03:46:52;14.90;87.50
11591;DHT22;5851;54.050;9.974;2023-07-20T03:49:20;14.90;87.40
11591;DHT22;5851;54.050;9.974;2023-07-20T03:51:47;14.90;88.40
11591;DHT22;5851;54.050;9.974;2023-07-20T03:54:14;14.80;88.60
11591;DHT22;5851;54.050;9.974;2023-07-20T03:56:41;14.80;88.70
11591;DHT22;5851;54.050;9.974;2023-07-20T03:59:08;14.70;89.30
11591;DHT22;5851;54.050;9.974;2023-07-20T04:01:35;14.70;88.70
11591;DHT22;5851;54.050;9.974;2023-07-20T04:04:07;14.80;88.90
11591;DHT22;5851;54.050;9.974;2023-07-20T04:06:36;14.60;88.90
11591;DHT22;5851;54.050;9.974;2023-07-20T04:09:03;14.60;89.60
11591;DHT22;5851;54.050;9.974;2023-07-20T04:11:31;14.70;89.10
11591;DHT22;5851;54.050;9.974;2023-07-20T04:13:58;14.60;89.10
11591;DHT22;5851;54.050;9.974;2023-07-20T04:16:25;14.60;89.40
11591;DHT22;5851;54.050;9.974;2023-07-20T04:18:54;14.50;89.90
11591;DHT22;5851;54.050;9.974;2023-07-20T04:21:21;14.40;90.30
11591;DHT22;5851;54.050;9.974;2023-07-20T04:23:50;14.40;90.30
11591;DHT22;5851;54.050;9.974;2023-07-20T04:26:17;14.30;90.70
11591;DHT22;5851;54.050;9.974;2023-07-20T04:28:44;14.20;90.50
11591;DHT22;5851;54.050;9.974;2023-07-20T04:31:11;14.20;91.00
11591;DHT22;5851;54.050;9.974;2023-07-20T04:33:39;14.20;90.70
11591;DHT22;5851;54.050;9.974;2023-07-20T04:36:06;14.30;90.90
11591;DHT22;5851;54.050;9.974;2023-07-20T04:38:33;14.40;90.90
11591;DHT22;5851;54.050;9.974;2023-07-20T04:41:01;14.40;91.00
11591;DHT22;5851;54.050;9.974;2023-07-20T04:43:29;14.30;91.20
11591;DHT22;5851;54.050;9.974;2023-07-20T04:45:56;14.50;91.10
11591;DHT22;5851;54.050;9.974;2023-07-20T04:48:24;14.50;90.80
11591;DHT22;5851;54.050;9.974;2023-07-20T04:50:50;14.60;90.40
11591;DHT22;5851;54.050;9.974;2023-07-20T04:53:17;14.60;90.20
11591;DHT22;5851;54.050;9.974;2023-07-20T04:55:48;14.70;90.00
11591;DHT22;5851;54.050;9.974;2023-07-20T04:58:19;14.70;90.00
11591;DHT22;5851;54.050;9.974;2023-07-20T05:00:46;14.70;90.40
11591;DHT22;5851;54.050;9.974;2023-07-20T05:03:13;14.80;89.50
11591;DHT22;5851;54.050;9.974;2023-07-20T05:05:40;14.80;90.20
11591;DHT22;5851;54.050;9.974;2023-07-20T05:08:07;14.80;90.00
11591;DHT22;5851;54.050;9.974;2023-07-20T05:10:34;14.90;89.80
11591;DHT22;5851;54.050;9.974;2023-07-20T05:13:01;14.90;89.40
11591;DHT22;5851;54.050;9.974;2023-07-20T05:15:29;14.90;89.90
11591;DHT22;5851;54.050;9.974;2023-07-20T05:17:56;14.90;90.00
11591;DHT22;5851;54.050;9.974;2023-07-20T05:20:23;14.90;90.00
11591;DHT22;5851;54.050;9.974;2023-07-20T05:22:50;14.90;89.40
11591;DHT22;5851;54.050;9.974;2023-07-20T05:25:18;14.80;89.50
11591;DHT22;5851;54.050;9.974;2023-07-20T05:27:48;14.90;89.40
11591;DHT22;5851;54.050;9.974;2023-07-20T05:30:16;15.10;89.50
11591;DHT22;5851;54.050;9.974;2023-07-20T05:32:44;15.20;90.00
11591;DHT22;5851;54.050;9.974;2023-07-20T05:35:13;15.20;89.70
11591;DHT22;5851;54.050;9.974;2023-07-20T05:37:42;15.20;89.00
11591;DHT22;5851;54.050;9.974;2023-07-20T05:40:10;15.20;88.90
11591;DHT22;5851;54.050;9.974;2023-07-20T05:42:37;15.30;89.70
11591;DHT22;5851;54.050;9.974;2023-07-20T05:45:06;15.30;89.60
11591;DHT22;5851;54.050;9.974;2023-07-20T05:47:33;15.40;89.80
11591;DHT22;5851;54.050;9.974;2023-07-20T05:50:01;15.40;90.30
11591;DHT22;5851;54.050;9.974;2023-07-20T05:52:29;15.50;89.20
11591;DHT22;5851;54.050;9.974;2023-07-20T05:54:56;15.60;89.60
11591;DHT22;5851;54.050;9.974;2023-07-20T05:57:23;15.60;90.00
11591;DHT22;5851;54.050;9.974;2023-07-20T05:59:50;15.70;90.00
11591;DHT22;5851;54.050;9.974;2023-07-20T06:02:17;15.60;88.20
11591;DHT22;5851;54.050;9.974;2023-07-20T06:04:44;15.50;88.60
11591;DHT22;5851;54.050;9.974;2023-07-20T06:07:12;15.50;89.60
11591;DHT22;5851;54.050;9.974;2023-07-20T06:09:39;15.50;87.50
11591;DHT22;5851;54.050;9.974;2023-07-20T06:12:08;15.80;90.20
11591;DHT22;5851;54.050;9.974;2023-07-20T06:14:35;15.70;85.90
11591;DHT22;5851;54.050;9.974;2023-07-20T06:17:02;15.70;88.10
11591;DHT22;5851;54.050;9.974;2023-07-20T06:19:29;15.70;87.20
11591;DHT22;5851;54.050;9.974;2023-07-20T06:21:56;15.70;88.30
11591;DHT22;5851;54.050;9.974;2023-07-20T06:24:24;15.90;86.80
11591;DHT22;5851;54.050;9.974;2023-07-20T06:26:51;15.90;86.20
11591;DHT22;5851;54.050;9.974;2023-07-20T06:29:18;15.90;85.80
11591;DHT22;5851;54.050;9.974;2023-07-20T06:31:45;15.90;85.80
11591;DHT22;5851;54.050;9.974;2023-07-20T06:34:11;15.90;86.00
11591;DHT22;5851;54.050;9.974;2023-07-20T06:36:38;16.00;84.70
11591;DHT22;5851;54.050;9.974;2023-07-20T06:39:05;15.90;86.20
11591;DHT22;5851;54.050;9.974;2023-07-20T06:41:34;16.00;82.90
11591;DHT22;5851;54.050;9.974;2023-07-20T06:44:00;16.00;84.40
11591;DHT22;5851;54.050;9.974;2023-07-20T06:46:27;16.10;83.20
11591;DHT22;5851;54.050;9.974;2023-07-20T06:48:54;16.00;83.70
11591;DHT22;5851;54.050;9.974;2023-07-20T06:51:22;16.10;84.60
11591;DHT22;5851;54.050;9.974;2023-07-20T06:53:49;16.20;83.70
11591;DHT22;5851;54.050;9.974;2023-07-20T06:56:16;16.30;83.90
11591;DHT22;5851;54.050;9.974;2023-07-20T06:58:44;16.20;82.60
11591;DHT22;5851;54.050;9.974;2023-07-20T07:01:11;16.20;80.50
11591;DHT22;5851;54.050;9.974;2023-07-20T07:03:38;16.20;83.80
11591;DHT22;5851;54.050;9.974;2023-07-20T07:06:05;16.50;82.60
11591;DHT22;5851;54.050;9.974;2023-07-20T07:08:32;16.50;81.40
11591;DHT22;5851;54.050;9.974;2023-07-20T07:10:59;16.50;82.90
11591;DHT22;5851;54.050;9.974;2023-07-20T07:13:26;16.60;82.60
11591;DHT22;5851;54.050;9.974;2023-07-20T07:15:54;16.90;83.50
11591;DHT22;5851;54.050;9.974;2023-07-20T07:18:21;17.00;81.50
11591;DHT22;5851;54.050;9.974;2023-07-20T07:20:52;16.90;81.40
11591;DHT22;5851;54.050;9.974;2023-07-20T07:23:19;16.60;81.00
11591;DHT22;5851;54.050;9.974;2023-07-20T07:25:46;16.70;81.70
11591;DHT22;5851;54.050;9.974;2023-07-20T07:28:13;16.70;80.50
11591;DHT22;5851;54.050;9.974;2023-07-20T07:30:40;16.70;79.40
11591;DHT22;5851;54.050;9.974;2023-07-20T07:33:09;16.50;78.00
11591;DHT22;5851;54.050;9.974;2023-07-20T07:35:36;16.50;80.80
11591;DHT22;5851;54.050;9.974;2023-07-20T07:38:03;16.50;81.30
11591;DHT22;5851;54.050;9.974;2023-07-20T07:40:31;16.50;81.00
11591;DHT22;5851;54.050;9.974;2023-07-20T07:42:58;16.50;80.50
11591;DHT22;5851;54.050;9.974;2023-07-20T07:45:25;16.50;81.40
11591;DHT22;5851;54.050;9.974;2023-07-20T07:47:51;16.20;81.10
11591;DHT22;5851;54.050;9.974;2023-07-20T07:50:20;16.10;81.70
11591;DHT22;5851;54.050;9.974;2023-07-20T07:52:47;16.10;83.50
11591;DHT22;5851;54.050;9.974;2023-07-20T07:55:13;16.30;82.90
11591;DHT22;5851;54.050;9.974;2023-07-20T07:57:42;16.30;82.40
11591;DHT22;5851;54.050;9.974;2023-07-20T08:00:10;16.50;81.00
11591;DHT22;5851;54.050;9.974;2023-07-20T08:02:40;16.50;80.80
11591;DHT22;5851;54.050;9.974;2023-07-20T08:05:08;16.60;80.40
11591;DHT22;5851;54.050;9.974;2023-07-20T08:07:36;16.60;78.00
11591;DHT22;5851;54.050;9.974;2023-07-20T08:10:04;16.70;79.40
11591;DHT22;5851;54.050;9.974;2023-07-20T08:12:31;16.80;78.30
11591;DHT22;5851;54.050;9.974;2023-07-20T08:14:58;16.70;76.50
11591;DHT22;5851;54.050;9.974;2023-07-20T08:17:25;16.60;78.50
11591;DHT22;5851;54.050;9.974;2023-07-20T08:19:52;16.90;80.60
11591;DHT22;5851;54.050;9.974;2023-07-20T08:22:19;16.80;79.80
11591;DHT22;5851;54.050;9.974;2023-07-20T08:24:47;16.70;82.10
11591;DHT22;5851;54.050;9.974;2023-07-20T08:27:14;16.50;82.60
11591;DHT22;5851;54.050;9.974;2023-07-20T08:29:41;16.40;83.30
11591;DHT22;5851;54.050;9.974;2023-07-20T08:32:08;16.40;85.70
11591;DHT22;5851;54.050;9.974;2023-07-20T08:34:35;16.50;85.50
11591;DHT22;5851;54.050;9.974;2023-07-20T08:37:02;16.70;87.50
11591;DHT22;5851;54.050;9.974;2023-07-20T08:39:30;16.80;86.00
11591;DHT22;5851;54.050;9.974;2023-07-20T08:42:00;17.00;86.00
11591;DHT22;5851;54.050;9.974;2023-07-20T08:44:30;17.00;84.80
11591;DHT22;5851;54.050;9.974;2023-07-20T08:46:59;16.90;83.80
11591;DHT22;5851;54.050;9.974;2023-07-20T08:49:31;17.00;83.20
11591;DHT22;5851;54.050;9.974;2023-07-20T08:52:00;17.00;82.50
11591;DHT22;5851;54.050;9.974;2023-07-20T08:54:30;17.00;82.40
11591;DHT22;5851;54.050;9.974;2023-07-20T08:57:02;16.90;81.90
11591;DHT22;5851;54.050;9.974;2023-07-20T08:59:29;16.70;81.60
11591;DHT22;5851;54.050;9.974;2023-07-20T09:01:56;16.70;81.90
11591;DHT22;5851;54.050;9.974;2023-07-20T09:04:24;16.90;82.30
11591;DHT22;5851;54.050;9.974;2023-07-20T09:06:51;17.00;82.10
11591;DHT22;5851;54.050;9.974;2023-07-20T09:09:18;17.00;80.60
11591;DHT22;5851;54.050;9.974;2023-07-20T09:11:47;17.00;81.50
11591;DHT22;5851;54.050;9.974;2023-07-20T09:14:16;17.20;81.90
11591;DHT22;5851;54.050;9.974;2023-07-20T09:16:49;17.30;80.20
11591;DHT22;5851;54.050;9.974;2023-07-20T09:19:17;17.20;77.20
11591;DHT22;5851;54.050;9.974;2023-07-20T09:21:47;17.30;77.70
11591;DHT22;5851;54.050;9.974;2023-07-20T09:24:16;17.30;77.00
11591;DHT22;5851;54.050;9.974;2023-07-20T09:26:44;17.30;76.90
11591;DHT22;5851;54.050;9.974;2023-07-20T09:29:18;17.20;77.90
11591;DHT22;5851;54.050;9.974;2023-07-20T09:31:58;17.10;78.10
11591;DHT22;5851;54.050;9.974;2023-07-20T09:34:26;17.20;78.50
11591;DHT22;5851;54.050;9.974;2023-07-20T09:36:53;17.10;79.80
11591;DHT22;5851;54.050;9.974;2023-07-20T09:39:20;17.00;81.90
11591;DHT22;5851;54.050;9.974;2023-07-20T09:41:47;16.60;84.00
11591;DHT22;5851;54.050;9.974;2023-07-20T09:44:16;16.50;85.00
11591;DHT22;5851;54.050;9.974;2023-07-20T09:46:45;16.50;86.60
11591;DHT22;5851;54.050;9.974;2023-07-20T09:49:12;16.40;87.70
11591;DHT22;5851;54.050;9.974;2023-07-20T09:51:40;16.20;89.40
11591;DHT22;5851;54.050;9.974;2023-07-20T09:54:08;16.40;89.50
11591;DHT22;5851;54.050;9.974;2023-07-20T09:56:35;16.50;90.00
11591;DHT22;5851;54.050;9.974;2023-07-20T09:59:03;16.70;90.10
11591;DHT22;5851;54.050;9.974;2023-07-20T10:01:34;17.00;89.30
11591;DHT22;5851;54.050;9.974;2023-07-20T10:04:03;17.00;88.80
11591;DHT22;5851;54.050;9.974;2023-07-20T10:06:32;17.00;88.40
11591;DHT22;5851;54.050;9.974;2023-07-20T10:09:01;17.00;88.80
11591;DHT22;5851;54.050;9.974;2023-07-20T10:11:31;16.90;88.30
11591;DHT22;5851;54.050;9.974;2023-07-20T10:13:59;16.80;89.00
11591;DHT22;5851;54.050;9.974;2023-07-20T10:16:29;16.60;89.80
11591;DHT22;5851;54.050;9.974;2023-07-20T10:19:05;16.50;89.10
11591;DHT22;5851;54.050;9.974;2023-07-20T10:21:34;16.20;89.90
11591;DHT22;5851;54.050;9.974;2023-07-20T10:24:03;16.10;90.30
11591;DHT22;5851;54.050;9.974;2023-07-20T10:26:30;16.10;90.20
11591;DHT22;5851;54.050;9.974;2023-07-20T10:28:57;16.20;89.80
11591;DHT22;5851;54.050;9.974;2023-07-20T10:31:25;16.20;89.60
11591;DHT22;5851;54.050;9.974;2023-07-20T10:33:54;16.20;90.10
11591;DHT22;5851;54.050;9.974;2023-07-20T10:36:26;16.10;90.50
11591;DHT22;5851;54.050;9.974;2023-07-20T10:38:54;16.20;90.00
11591;DHT22;5851;54.050;9.974;2023-07-20T10:41:28;16.20;89.20
11591;DHT22;5851;54.050;9.974;2023-07-20T10:43:58;16.20;89.00
11591;DHT22;5851;54.050;9.974;2023-07-20T10:46:43;16.40;89.30
11591;DHT22;5851;54.050;9.974;2023-07-20T10:49:12;16.60;90.00
11591;DHT22;5851;54.050;9.974;2023-07-20T10:51:43;16.70;90.40
11591;DHT22;5851;54.050;9.974;2023-07-20T10:57:23;16.50;88.90
11591;DHT22;5851;54.050;9.974;2023-07-20T10:59:50;16.50;89.10
11591;DHT22;5851;54.050;9.974;2023-07-20T11:02:18;16.50;89.60
11591;DHT22;5851;54.050;9.974;2023-07-20T11:04:46;16.50;90.00
11591;DHT22;5851;54.050;9.974;2023-07-20T11:07:17;16.30;88.30
11591;DHT22;5851;54.050;9.974;2023-07-20T11:09:44;16.20;88.70
11591;DHT22;5851;54.050;9.974;2023-07-20T11:12:13;16.20;89.10
11591;DHT22;5851;54.050;9.974;2023-07-20T11:14:41;16.10;89.40
11591;DHT22;5851;54.050;9.974;2023-07-20T11:17:12;16.20;89.70
11591;DHT22;5851;54.050;9.974;2023-07-20T11:19:39;16.30;89.70
11591;DHT22;5851;54.050;9.974;2023-07-20T11:22:06;16.20;89.20
11591;DHT22;5851;54.050;9.974;2023-07-20T11:24:38;16.10;89.70
11591;DHT22;5851;54.050;9.974;2023-07-20T11:27:06;16.10;89.80
11591;DHT22;5851;54.050;9.974;2023-07-20T11:29:33;16.10;89.90
11591;DHT22;5851;54.050;9.974;2023-07-20T11:32:00;16.30;89.70
11591;DHT22;5851;54.050;9.974;2023-07-20T11:34:29;16.30;89.70
11591;DHT22;5851;54.050;9.974;2023-07-20T11:36:56;16.30;90.10
11591;DHT22;5851;54.050;9.974;2023-07-20T11:39:23;16.30;90.30
11591;DHT22;5851;54.050;9.974;2023-07-20T11:41:54;16.40;90.60
11591;DHT22;5851;54.050;9.974;2023-07-20T11:44:22;16.50;90.60
11591;DHT22;5851;54.050;9.974;2023-07-20T11:46:59;16.50;90.30
11591;DHT22;5851;54.050;9.974;2023-07-20T11:49:27;16.70;89.70
11591;DHT22;5851;54.050;9.974;2023-07-20T11:51:56;16.80;90.10
11591;DHT22;5851;54.050;9.974;2023-07-20T11:54:24;17.00;90.80
11591;DHT22;5851;54.050;9.974;2023-07-20T11:56:55;17.20;90.40
11591;DHT22;5851;54.050;9.974;2023-07-20T11:59:22;17.10;89.40
11591;DHT22;5851;54.050;9.974;2023-07-20T12:01:49;17.00;88.90
11591;DHT22;5851;54.050;9.974;2023-07-20T12:04:16;17.10;89.90
11591;DHT22;5851;54.050;9.974;2023-07-20T12:06:45;17.20;89.80
11591;DHT22;5851;54.050;9.974;2023-07-20T12:09:14;17.00;86.70
11591;DHT22;5851;54.050;9.974;2023-07-20T12:11:43;16.90;88.10
11591;DHT22;5851;54.050;9.974;2023-07-20T12:14:12;16.80;87.60
11591;DHT22;5851;54.050;9.974;2023-07-20T12:16:39;16.60;87.90
11591;DHT22;5851;54.050;9.974;2023-07-20T12:19:07;16.60;87.80
11591;DHT22;5851;54.050;9.974;2023-07-20T12:21:35;16.40;88.20
11591;DHT22;5851;54.050;9.974;2023-07-20T12:24:03;16.10;88.40
11591;DHT22;5851;54.050;9.974;2023-07-20T12:26:31;16.30;88.40
11591;DHT22;5851;54.050;9.974;2023-07-20T12:28:58;16.40;88.60
11591;DHT22;5851;54.050;9.974;2023-07-20T12:31:27;16.40;88.70
11591;DHT22;5851;54.050;9.974;2023-07-20T12:33:56;16.50;88.20
11591;DHT22;5851;54.050;9.974;2023-07-20T12:36:24;16.60;88.90
11591;DHT22;5851;54.050;9.974;2023-07-20T12:38:51;16.60;88.40
11591;DHT22;5851;54.050;9.974;2023-07-20T12:41:18;16.70;89.20
11591;DHT22;5851;54.050;9.974;2023-07-20T12:43:46;16.70;88.20
11591;DHT22;5851;54.050;9.974;2023-07-20T12:46:13;16.50;87.80
11591;DHT22;5851;54.050;9.974;2023-07-20T12:48:41;16.40;87.80
11591;DHT22;5851;54.050;9.974;2023-07-20T12:51:09;16.50;87.80
11591;DHT22;5851;54.050;9.974;2023-07-20T12:53:37;16.50;87.70
11591;DHT22;5851;54.050;9.974;2023-07-20T12:56:05;16.40;87.50
11591;DHT22;5851;54.050;9.974;2023-07-20T12:58:32;16.20;87.80
11591;DHT22;5851;54.050;9.974;2023-07-20T13:00:58;16.10;87.60
11591;DHT22;5851;54.050;9.974;2023-07-20T13:03:25;16.30;87.70
11591;DHT22;5851;54.050;9.974;2023-07-20T13:05:54;16.30;87.40
11591;DHT22;5851;54.050;9.974;2023-07-20T13:08:21;16.40;87.60
11591;DHT22;5851;54.050;9.974;2023-07-20T13:10:50;16.50;87.40
11591;DHT22;5851;54.050;9.974;2023-07-20T13:13:17;16.50;86.80
11591;DHT22;5851;54.050;9.974;2023-07-20T13:15:45;16.60;86.40
11591;DHT22;5851;54.050;9.974;2023-07-20T13:18:13;16.80;87.60
11591;DHT22;5851;54.050;9.974;2023-07-20T13:20:40;16.90;87.40
11591;DHT22;5851;54.050;9.974;2023-07-20T13:23:08;16.90;86.60
11591;DHT22;5851;54.050;9.974;2023-07-20T13:25:36;17.00;86.50
11591;DHT22;5851;54.050;9.974;2023-07-20T13:28:03;17.10;87.50
11591;DHT22;5851;54.050;9.974;2023-07-20T13:30:30;17.30;87.80
11591;DHT22;5851;54.050;9.974;2023-07-20T13:32:57;17.40;88.30
11591;DHT22;5851;54.050;9.974;2023-07-20T13:35:23;17.50;86.60
11591;DHT22;5851;54.050;9.974;2023-07-20T13:37:50;17.50;87.50
11591;DHT22;5851;54.050;9.974;2023-07-20T13:40:19;17.70;86.20
11591;DHT22;5851;54.050;9.974;2023-07-20T13:42:48;17.70;79.70
11591;DHT22;5851;54.050;9.974;2023-07-20T13:45:15;17.50;81.90
11591;DHT22;5851;54.050;9.974;2023-07-20T13:47:42;17.50;81.40
11591;DHT22;5851;54.050;9.974;2023-07-20T13:50:09;17.50;81.90
11591;DHT22;5851;54.050;9.974;2023-07-20T13:52:36;17.50;82.80
11591;DHT22;5851;54.050;9.974;2023-07-20T13:55:03;17.70;81.70
11591;DHT22;5851;54.050;9.974;2023-07-20T13:57:33;18.10;78.30
11591;DHT22;5851;54.050;9.974;2023-07-20T14:00:00;18.00;78.90
11591;DHT22;5851;54.050;9.974;2023-07-20T14:02:27;17.90;78.00
11591;DHT22;5851;54.050;9.974;2023-07-20T14:04:54;18.00;77.80
11591;DHT22;5851;54.050;9.974;2023-07-20T14:07:21;18.00;76.00
11591;DHT22;5851;54.050;9.974;2023-07-20T14:09:48;17.90;76.60
11591;DHT22;5851;54.050;9.974;2023-07-20T14:12:15;17.80;76.90
11591;DHT22;5851;54.050;9.974;2023-07-20T14:14:43;17.80;76.20
11591;DHT22;5851;54.050;9.974;2023-07-20T14:17:10;17.80;76.70
11591;DHT22;5851;54.050;9.974;2023-07-20T14:19:37;17.70;77.00
11591;DHT22;5851;54.050;9.974;2023-07-20T14:22:05;17.70;78.00
11591;DHT22;5851;54.050;9.974;2023-07-20T14:24:32;17.60;78.50
11591;DHT22;5851;54.050;9.974;2023-07-20T14:26:59;17.50;78.70
11591;DHT22;5851;54.050;9.974;2023-07-20T14:29:26;17.40;76.90
11591;DHT22;5851;54.050;9.974;2023-07-20T14:31:54;17.30;80.70
11591;DHT22;5851;54.050;9.974;2023-07-20T14:34:21;17.40;80.80
11591;DHT22;5851;54.050;9.974;2023-07-20T14:36:48;17.50;82.40
11591;DHT22;5851;54.050;9.974;2023-07-20T14:39:16;17.60;80.70
11591;DHT22;5851;54.050;9.974;2023-07-20T14:41:43;17.40;80.50
11591;DHT22;5851;54.050;9.974;2023-07-20T14:44:10;17.40;81.10
11591;DHT22;5851;54.050;9.974;2023-07-20T14:46:37;17.30;81.70
11591;DHT22;5851;54.050;9.974;2023-07-20T14:49:05;17.30;82.60
11591;DHT22;5851;54.050;9.974;2023-07-20T14:51:32;17.30;82.80
11591;DHT22;5851;54.050;9.974;2023-07-20T14:54:01;17.30;82.80
11591;DHT22;5851;54.050;9.974;2023-07-20T14:56:28;17.30;82.90
11591;DHT22;5851;54.050;9.974;2023-07-20T14:58:55;17.30;82.90
11591;DHT22;5851;54.050;9.974;2023-07-20T15:01:23;17.20;82.50
11591;DHT22;5851;54.050;9.974;2023-07-20T15:03:50;17.20;81.90
11591;DHT22;5851;54.050;9.974;2023-07-20T15:06:20;17.20;80.90
11591;DHT22;5851;54.050;9.974;2023-07-20T15:08:47;17.30;81.20
11591;DHT22;5851;54.050;9.974;2023-07-20T15:11:14;17.40;81.50
11591;DHT22;5851;54.050;9.974;2023-07-20T15:13:41;17.50;81.90
11591;DHT22;5851;54.050;9.974;2023-07-20T15:16:08;17.60;80.20
11591;DHT22;5851;54.050;9.974;2023-07-20T15:18:36;17.60;79.50
11591;DHT22;5851;54.050;9.974;2023-07-20T15:21:03;17.60;79.60
11591;DHT22;5851;54.050;9.974;2023-07-20T15:23:31;17.50;79.20
11591;DHT22;5851;54.050;9.974;2023-07-20T15:25:58;17.50;78.40
11591;DHT22;5851;54.050;9.974;2023-07-20T15:28:25;17.40;78.30
11591;DHT22;5851;54.050;9.974;2023-07-20T15:30:59;17.40;78.80
11591;DHT22;5851;54.050;9.974;2023-07-20T15:33:26;17.50;78.50
11591;DHT22;5851;54.050;9.974;2023-07-20T15:35:53;17.60;75.70
11591;DHT22;5851;54.050;9.974;2023-07-20T15:38:20;17.40;74.10
11591;DHT22;5851;54.050;9.974;2023-07-20T15:40:49;17.40;75.60
11591;DHT22;5851;54.050;9.974;2023-07-20T15:43:16;17.50;76.00
11591;DHT22;5851;54.050;9.974;2023-07-20T15:45:46;17.60;76.40
11591;DHT22;5851;54.050;9.974;2023-07-20T15:48:14;17.60;77.30
11591;DHT22;5851;54.050;9.974;2023-07-20T15:50:41;17.60;77.30
11591;DHT22;5851;54.050;9.974;2023-07-20T15:53:08;17.60;77.80